Time;durP1;ratioP1;P1;durP2;ratioP2;P2;SDS_P1;SDS_P2;PMS_P1;PMS_P2;Temp;Humidity;BMP_temperature;BMP_pressure;BME280_temperature;BME280_humidity;BME280_pressure;Samples;Min_cycle;Max_cycle;Signal;HPM_P1;HPM_P2
2023/11/03 00:01:34;;;;;;;10.02;6.28;;;;;;;;;;10287380;28;20076;-66
2023/11/03 00:06:33;;;;;;;7.90;6.72;;;;;;;;;;10291251;28;20501;-67
2023/11/03 00:11:31;;;;;;;8.90;7.05;;;;;;;;;;10291461;28;20068;-66
2023/11/03 00:16:30;;;;;;;10.13;6.07;;;;;;;;;;10288850;28;20088;-67
2023/11/03 00:21:30;;;;;;;8.35;6.18;;;;;;;;;;10291958;28;20087;-67
2023/11/03 00:26:28;;;;;;;6.60;5.80;;;;;;;;;;10292512;28;20056;-67
2023/11/03 00:31:28;;;;;;;11.52;9.35;;;;;;;;;;10289945;28;20096;-67
2023/11/03 00:36:26;;;;;;;12.88;7.68;;;;;;;;;;10285915;28;20102;-66
2023/11/03 00:41:29;;;;;;;8.10;7.13;;;;;;;;;;10289222;28;20075;-67
2023/11/03 00:46:27;;;;;;;7.28;6.50;;;;;;;;;;10290020;28;20072;-67
2023/11/03 00:51:25;;;;;;;8.88;6.97;;;;;;;;;;10290046;28;20068;-67
2023/11/03 00:56:24;;;;;;;8.65;6.40;;;;;;;;;;10295951;28;20103;-67
2023/11/03 01:01:24;;;;;;;7.15;6.15;;;;;;;;;;10288994;28;20565;-67
2023/11/03 01:06:23;;;;;;;7.93;6.65;;;;;;;;;;10298019;28;20071;-65
2023/11/03 01:11:23;;;;;;;9.40;6.65;;;;;;;;;;10297544;28;20065;-65
2023/11/03 01:16:22;;;;;;;7.82;6.05;;;;;;;;;;10297493;28;20064;-66
2023/11/03 01:21:22;;;;;;;6.93;6.32;;;;;;;;;;10299314;28;20091;-65
2023/11/03 01:26:24;;;;;;;7.32;6.63;;;;;;;;;;10296280;28;20072;-65
2023/11/03 01:31:23;;;;;;;6.22;5.60;;;;;;;;;;10306842;28;20044;-65
2023/11/03 01:36:23;;;;;;;9.45;6.97;;;;;;;;;;10295971;28;20266;-65
2023/11/03 01:41:21;;;;;;;9.55;8.60;;;;;;;;;;10297040;28;20426;-65
2023/11/03 01:46:19;;;;;;;6.68;5.93;;;;;;;;;;10296849;28;20139;-65
2023/11/03 01:51:17;;;;;;;10.30;6.95;;;;;;;;;;10295813;28;20060;-65
2023/11/03 01:56:17;;;;;;;7.72;6.93;;;;;;;;;;10295420;28;20120;-65
2023/11/03 02:01:15;;;;;;;9.15;7.15;;;;;;;;;;10292727;28;20083;-66
2023/11/03 02:06:13;;;;;;;8.30;6.38;;;;;;;;;;10295931;28;20064;-65
2023/11/03 02:11:13;;;;;;;10.77;6.47;;;;;;;;;;10294392;28;20083;-65
2023/11/03 02:16:13;;;;;;;8.25;6.55;;;;;;;;;;10301488;28;20056;-65
2023/11/03 02:21:12;;;;;;;9.68;6.38;;;;;;;;;;10294865;28;20463;-65
2023/11/03 02:26:12;;;;;;;6.93;6.30;;;;;;;;;;10295380;28;20065;-65
2023/11/03 02:31:10;;;;;;;7.10;6.47;;;;;;;;;;10295600;28;20045;-65
2023/11/03 02:36:08;;;;;;;6.75;6.05;;;;;;;;;;10299434;28;20087;-65
2023/11/03 02:41:07;;;;;;;8.50;7.20;;;;;;;;;;10294227;28;20084;-65
2023/11/03 02:46:07;;;;;;;6.90;6.10;;;;;;;;;;10293635;28;20081;-66
2023/11/03 02:51:05;;;;;;;7.82;6.45;;;;;;;;;;10293705;28;20072;-66
2023/11/03 02:56:04;;;;;;;8.18;7.25;;;;;;;;;;10291633;28;20049;-66
2023/11/03 03:01:02;;;;;;;7.70;6.43;;;;;;;;;;10299974;28;20076;-66
2023/11/03 03:06:02;;;;;;;11.45;7.30;;;;;;;;;;10295743;28;20157;-64
2023/11/03 03:11:01;;;;;;;8.10;6.95;;;;;;;;;;10292597;28;20075;-65
2023/11/03 03:15:59;;;;;;;7.85;6.45;;;;;;;;;;10295220;28;20060;-65
2023/11/03 03:20:57;;;;;;;13.52;6.43;;;;;;;;;;10292689;28;20084;-65
2023/11/03 03:25:57;;;;;;;7.45;5.95;;;;;;;;;;10293069;28;20044;-65
2023/11/03 03:30:55;;;;;;;7.22;6.13;;;;;;;;;;10291970;28;20072;-66
2023/11/03 03:35:54;;;;;;;7.18;6.45;;;;;;;;;;10293125;28;20076;-66
2023/11/03 03:40:52;;;;;;;7.40;6.10;;;;;;;;;;10291869;28;20083;-65
2023/11/03 03:45:53;;;;;;;6.65;5.95;;;;;;;;;;10294362;28;20075;-66
2023/11/03 03:50:51;;;;;;;7.28;6.55;;;;;;;;;;10294422;28;20262;-66
2023/11/03 03:55:50;;;;;;;9.15;7.15;;;;;;;;;;10290943;28;20072;-66
2023/11/03 04:00:48;;;;;;;7.75;6.47;;;;;;;;;;10290681;28;20087;-65
2023/11/03 04:05:47;;;;;;;6.72;5.80;;;;;;;;;;10291467;28;20071;-66
2023/11/03 04:10:46;;;;;;;12.90;7.13;;;;;;;;;;10289804;28;20519;-66
2023/11/03 04:15:44;;;;;;;8.75;6.53;;;;;;;;;;10290720;28;20061;-65
2023/11/03 04:20:42;;;;;;;9.68;6.43;;;;;;;;;;10289363;28;20083;-66
2023/11/03 04:25:42;;;;;;;7.50;6.72;;;;;;;;;;10290405;28;20059;-66
2023/11/03 04:30:40;;;;;;;8.30;7.35;;;;;;;;;;10287562;28;20072;-66
2023/11/03 04:35:38;;;;;;;9.77;6.63;;;;;;;;;;10288793;28;20060;-66
2023/11/03 04:40:36;;;;;;;9.98;7.60;;;;;;;;;;10290036;28;20081;-66
2023/11/03 04:45:36;;;;;;;7.50;6.57;;;;;;;;;;10289623;28;20574;-66
2023/11/03 04:50:34;;;;;;;8.07;6.35;;;;;;;;;;10290404;28;20506;-65
2023/11/03 04:55:32;;;;;;;7.38;6.40;;;;;;;;;;10288502;28;20091;-65
2023/11/03 05:00:31;;;;;;;7.20;6.50;;;;;;;;;;10291128;28;20526;-66
2023/11/03 05:05:32;;;;;;;7.22;6.47;;;;;;;;;;10288101;28;20087;-66
2023/11/03 05:10:31;;;;;;;8.13;7.00;;;;;;;;;;10288645;28;20060;-66
2023/11/03 05:15:29;;;;;;;8.57;7.78;;;;;;;;;;10289288;28;20521;-66
2023/11/03 05:20:27;;;;;;;8.75;7.53;;;;;;;;;;10285621;28;20477;-65
2023/11/03 05:25:27;;;;;;;15.05;9.70;;;;;;;;;;10288412;28;20069;-66
2023/11/03 05:30:25;;;;;;;18.52;15.10;;;;;;;;;;10289492;28;20075;-65
2023/11/03 05:35:23;;;;;;;18.50;14.32;;;;;;;;;;10288912;28;20060;-66
2023/11/03 05:40:22;;;;;;;10.98;9.88;;;;;;;;;;10288877;28;20064;-65
2023/11/03 05:45:21;;;;;;;10.07;7.78;;;;;;;;;;10287175;28;20069;-66
2023/11/03 05:50:19;;;;;;;12.80;9.90;;;;;;;;;;10294381;28;20473;-66
2023/11/03 05:55:18;;;;;;;18.42;11.32;;;;;;;;;;10291479;28;20072;-65
2023/11/03 06:00:16;;;;;;;11.73;9.32;;;;;;;;;;10290823;28;20488;-65
2023/11/03 06:05:16;;;;;;;13.52;9.27;;;;;;;;;;10290590;28;20068;-65
2023/11/03 06:10:14;;;;;;;14.48;8.50;;;;;;;;;;10295738;28;20471;-66
2023/11/03 06:15:13;;;;;;;10.15;8.57;;;;;;;;;;10291056;28;20068;-65
2023/11/03 06:20:12;;;;;;;9.20;8.00;;;;;;;;;;10295502;28;20084;-64
2023/11/03 06:25:11;;;;;;;12.27;8.73;;;;;;;;;;10296253;28;20052;-65
2023/11/03 06:30:10;;;;;;;10.82;9.43;;;;;;;;;;10287452;28;20517;-65
2023/11/03 06:35:08;;;;;;;11.35;10.25;;;;;;;;;;10287984;28;20068;-65
2023/11/03 06:40:10;;;;;;;17.30;15.00;;;;;;;;;;10285535;28;20077;-65
2023/11/03 06:45:11;;;;;;;21.65;19.17;;;;;;;;;;10289848;28;20072;-65
2023/11/03 06:50:09;;;;;;;15.55;12.73;;;;;;;;;;10292598;28;20087;-66
2023/11/03 06:55:08;;;;;;;13.48;10.93;;;;;;;;;;10292197;28;20080;-65
2023/11/03 07:00:09;;;;;;;11.80;10.43;;;;;;;;;;10293526;28;20088;-66
2023/11/03 07:05:09;;;;;;;13.13;9.45;;;;;;;;;;10291760;28;20072;-65
2023/11/03 07:10:09;;;;;;;12.85;11.60;;;;;;;;;;10292493;28;20191;-66
2023/11/03 07:15:08;;;;;;;12.75;10.95;;;;;;;;;;10293364;28;20479;-65
2023/11/03 07:20:08;;;;;;;9.15;8.25;;;;;;;;;;10291683;28;20473;-65
2023/11/03 07:25:08;;;;;;;9.82;8.73;;;;;;;;;;10287782;28;20561;-65
2023/11/03 07:30:07;;;;;;;14.20;9.77;;;;;;;;;;10286018;28;20184;-65
2023/11/03 07:35:06;;;;;;;12.43;10.70;;;;;;;;;;10285984;28;20073;-65
2023/11/03 07:40:05;;;;;;;10.93;8.55;;;;;;;;;;10287231;28;20619;-65
2023/11/03 07:45:06;;;;;;;10.23;8.68;;;;;;;;;;10289684;28;20069;-66
2023/11/03 07:50:05;;;;;;;9.10;8.20;;;;;;;;;;10283209;28;20073;-65
2023/11/03 07:55:03;;;;;;;9.55;8.52;;;;;;;;;;10286844;28;20065;-65
2023/11/03 08:00:10;;;;;;;10.45;9.05;;;;;;;;;;10279650;28;20622;-67
2023/11/03 08:05:13;;;;;;;11.88;8.88;;;;;;;;;;10285974;28;20069;-65
2023/11/03 08:10:12;;;;;;;8.35;7.55;;;;;;;;;;10288650;28;20314;-66
2023/11/03 08:15:11;;;;;;;11.02;9.57;;;;;;;;;;10287777;28;20075;-66
2023/11/03 08:20:15;;;;;;;9.55;8.57;;;;;;;;;;10290167;28;20087;-67
2023/11/03 08:25:14;;;;;;;9.57;8.57;;;;;;;;;;10291504;28;20069;-65
2023/11/03 08:30:12;;;;;;;13.65;8.20;;;;;;;;;;10288696;28;20442;-65
2023/11/03 08:35:11;;;;;;;13.15;10.32;;;;;;;;;;10289527;28;20071;-66
2023/11/03 08:40:13;;;;;;;11.68;10.55;;;;;;;;;;10289669;28;20461;-67
2023/11/03 08:45:11;;;;;;;9.80;8.70;;;;;;;;;;10289926;28;20068;-66
2023/11/03 08:50:10;;;;;;;10.85;9.85;;;;;;;;;;10289562;28;20083;-67
2023/11/03 08:55:08;;;;;;;9.93;8.93;;;;;;;;;;10289595;28;20087;-65
2023/11/03 09:00:11;;;;;;;10.15;9.13;;;;;;;;;;10288844;28;20079;-67
2023/11/03 09:05:10;;;;;;;12.02;10.77;;;;;;;;;;10289172;28;20087;-67
2023/11/03 09:10:10;;;;;;;14.55;13.07;;;;;;;;;;10287482;28;20092;-66
2023/11/03 09:15:10;;;;;;;10.93;8.68;;;;;;;;;;10290551;28;20088;-66
2023/11/03 09:20:10;;;;;;;11.30;9.32;;;;;;;;;;10289933;28;20091;-66
2023/11/03 09:25:08;;;;;;;9.15;8.25;;;;;;;;;;10296262;28;20615;-67
2023/11/03 09:30:10;;;;;;;7.97;7.25;;;;;;;;;;10298009;28;20083;-67
2023/11/03 09:35:10;;;;;;;8.95;8.02;;;;;;;;;;10296058;28;20080;-66
2023/11/03 09:40:10;;;;;;;8.25;7.43;;;;;;;;;;10297548;28;20096;-66
2023/11/03 09:45:15;;;;;;;10.70;7.70;;;;;;;;;;10296450;28;20081;-67
2023/11/03 09:50:15;;;;;;;8.02;7.22;;;;;;;;;;10295874;28;20076;-68
2023/11/03 09:55:17;;;;;;;8.32;6.32;;;;;;;;;;10296322;28;20075;-66
2023/11/03 10:00:19;;;;;;;10.10;9.10;;;;;;;;;;10295941;28;20077;-66
2023/11/03 10:05:19;;;;;;;8.15;7.45;;;;;;;;;;10293490;28;20076;-65
2023/11/03 10:10:18;;;;;;;8.43;7.65;;;;;;;;;;10295176;28;20064;-66
2023/11/03 10:15:16;;;;;;;7.70;7.00;;;;;;;;;;10291233;28;20068;-66
2023/11/03 10:20:15;;;;;;;7.70;7.00;;;;;;;;;;10298256;28;20091;-66
2023/11/03 10:25:15;;;;;;;8.68;7.82;;;;;;;;;;10295665;28;20064;-66
2023/11/03 10:30:15;;;;;;;8.18;7.22;;;;;;;;;;10294721;28;20074;-65
2023/11/03 10:35:14;;;;;;;7.95;7.25;;;;;;;;;;10295484;28;20068;-67
2023/11/03 10:40:13;;;;;;;7.20;6.50;;;;;;;;;;10293952;28;20064;-65
2023/11/03 10:45:15;;;;;;;7.75;7.00;;;;;;;;;;10292562;28;20079;-66
2023/11/03 10:50:15;;;;;;;16.00;8.45;;;;;;;;;;10294012;28;20083;-66
2023/11/03 10:55:14;;;;;;;7.13;6.43;;;;;;;;;;10294208;28;20072;-66
2023/11/03 11:00:17;;;;;;;9.20;6.88;;;;;;;;;;10293138;28;20095;-67
2023/11/03 11:05:19;;;;;;;6.28;5.68;;;;;;;;;;10292651;28;20075;-67
2023/11/03 11:10:19;;;;;;;5.88;5.38;;;;;;;;;;10294756;28;20073;-65
2023/11/03 11:15:19;;;;;;;7.20;5.78;;;;;;;;;;10293104;28;20083;-66
2023/11/03 11:20:19;;;;;;;5.57;5.18;;;;;;;;;;10294039;28;20123;-65
2023/11/03 11:25:35;;;;;;;5.25;4.75;;;;;;;;;;10293591;28;20204;-65
2023/11/03 11:30:35;;;;;;;5.50;5.03;;;;;;;;;;10293006;28;20065;-65
2023/11/03 11:35:38;;;;;;;5.75;4.93;;;;;;;;;;10289781;28;20056;-65
2023/11/03 11:40:36;;;;;;;5.22;4.72;;;;;;;;;;10290351;28;20095;-65
2023/11/03 11:45:37;;;;;;;5.07;4.65;;;;;;;;;;10292240;28;20073;-64
2023/11/03 11:50:36;;;;;;;5.10;4.57;;;;;;;;;;10291637;28;20072;-65
2023/11/03 11:55:35;;;;;;;5.35;4.50;;;;;;;;;;10290245;28;20068;-65
2023/11/03 12:00:39;;;;;;;4.53;4.13;;;;;;;;;;10291945;28;20079;-66
2023/11/03 12:05:38;;;;;;;5.90;4.82;;;;;;;;;;10287408;28;20077;-66
2023/11/03 12:10:37;;;;;;;8.10;5.00;;;;;;;;;;10290282;28;20517;-65
2023/11/03 12:15:36;;;;;;;5.40;4.90;;;;;;;;;;10291184;28;20064;-65
2023/11/03 12:20:35;;;;;;;5.57;5.13;;;;;;;;;;10290992;28;20498;-65
2023/11/03 12:25:34;;;;;;;8.93;7.70;;;;;;;;;;10285333;28;20095;-65
2023/11/03 12:30:47;;;;;;;6.85;6.22;;;;;;;;;;10288135;28;20118;-65
2023/11/03 12:35:47;;;;;;;6.18;5.53;;;;;;;;;;10288405;28;20087;-64
2023/11/03 12:40:47;;;;;;;9.25;7.07;;;;;;;;;;10290429;28;20076;-65
2023/11/03 12:45:45;;;;;;;7.13;6.53;;;;;;;;;;10290378;28;20071;-65
2023/11/03 12:50:51;;;;;;;7.72;5.57;;;;;;;;;;10290004;28;20072;-65
2023/11/03 12:55:57;;;;;;;5.88;5.30;;;;;;;;;;10284939;28;20081;-65
2023/11/03 13:00:57;;;;;;;6.22;5.45;;;;;;;;;;10284908;28;20076;-65
2023/11/03 13:05:59;;;;;;;5.07;4.57;;;;;;;;;;10290142;28;20498;-65
2023/11/03 13:10:58;;;;;;;6.90;4.82;;;;;;;;;;10289556;28;20081;-65
2023/11/03 13:15:56;;;;;;;5.43;4.93;;;;;;;;;;10289521;28;20072;-66
2023/11/03 13:20:54;;;;;;;8.02;5.00;;;;;;;;;;10289041;28;20081;-66
2023/11/03 13:25:54;;;;;;;5.70;5.20;;;;;;;;;;10287172;28;20512;-65
2023/11/03 13:30:52;;;;;;;9.50;5.32;;;;;;;;;;10288035;28;20079;-67
2023/11/03 13:35:51;;;;;;;10.43;5.13;;;;;;;;;;10289084;28;20064;-66
2023/11/03 13:40:50;;;;;;;5.93;5.43;;;;;;;;;;10289717;28;20076;-66
2023/11/03 13:45:52;;;;;;;8.35;7.32;;;;;;;;;;10287317;28;20075;-65
2023/11/03 13:50:50;;;;;;;16.33;7.72;;;;;;;;;;10290176;28;20080;-66
2023/11/03 13:55:48;;;;;;;17.58;15.18;;;;;;;;;;10284289;28;20515;-65
2023/11/03 14:00:47;;;;;;;16.08;14.55;;;;;;;;;;10288642;28;20135;-66
2023/11/03 14:05:47;;;;;;;16.60;14.93;;;;;;;;;;10289211;28;20079;-65
2023/11/03 14:10:46;;;;;;;11.40;9.15;;;;;;;;;;10294392;28;20068;-65
2023/11/03 14:15:44;;;;;;;11.07;8.07;;;;;;;;;;10295538;28;20068;-65
2023/11/03 14:20:42;;;;;;;9.30;7.47;;;;;;;;;;10295687;28;20502;-66
2023/11/03 14:25:42;;;;;;;9.30;7.75;;;;;;;;;;10294687;28;20072;-65
2023/11/03 14:30:41;;;;;;;10.90;9.90;;;;;;;;;;10294798;28;20691;-65
2023/11/03 14:35:39;;;;;;;22.30;19.95;;;;;;;;;;10294702;28;20073;-65
2023/11/03 14:40:38;;;;;;;9.48;8.48;;;;;;;;;;10293635;28;20094;-65
2023/11/03 14:45:39;;;;;;;9.80;8.75;;;;;;;;;;10294124;28;20342;-65
2023/11/03 14:50:37;;;;;;;55.55;43.83;;;;;;;;;;10294458;28;20099;-66
2023/11/03 14:55:37;;;;;;;8.45;7.65;;;;;;;;;;10293537;28;20438;-65
2023/11/03 15:00:36;;;;;;;12.32;11.00;;;;;;;;;;10294840;28;20080;-65
2023/11/03 15:05:36;;;;;;;11.13;9.88;;;;;;;;;;10289312;28;20084;-65
2023/11/03 15:10:35;;;;;;;17.58;14.50;;;;;;;;;;10288696;28;20067;-65
2023/11/03 15:15:37;;;;;;;14.95;13.45;;;;;;;;;;10291894;28;20458;-65
2023/11/03 15:20:37;;;;;;;20.95;13.63;;;;;;;;;;10292481;28;20083;-64
2023/11/03 15:25:36;;;;;;;9.52;8.50;;;;;;;;;;10288871;28;20092;-65
2023/11/03 15:30:35;;;;;;;17.95;13.55;;;;;;;;;;10286404;28;20056;-65
2023/11/03 15:35:34;;;;;;;8.45;6.95;;;;;;;;;;10286774;28;20087;-64
2023/11/03 15:40:33;;;;;;;9.80;8.80;;;;;;;;;;10283138;28;20064;-65
2023/11/03 15:45:32;;;;;;;11.70;8.77;;;;;;;;;;10282674;28;20100;-65
2023/11/03 15:50:33;;;;;;;10.57;7.68;;;;;;;;;;10287372;28;20060;-64
2023/11/03 15:55:32;;;;;;;7.90;7.10;;;;;;;;;;10282933;28;20071;-66
2023/11/03 16:00:31;;;;;;;9.10;8.23;;;;;;;;;;10285572;28;20083;-66
2023/11/03 16:05:30;;;;;;;8.55;6.93;;;;;;;;;;10285382;28;20088;-67
2023/11/03 16:10:29;;;;;;;6.97;5.95;;;;;;;;;;10288781;28;20449;-65
2023/11/03 16:15:27;;;;;;;10.65;6.82;;;;;;;;;;10287923;28;20072;-64
2023/11/03 16:20:28;;;;;;;7.38;4.90;;;;;;;;;;10289008;28;20088;-66
2023/11/03 16:25:27;;;;;;;9.82;7.22;;;;;;;;;;10289800;28;20076;-66
2023/11/03 16:30:26;;;;;;;8.07;6.43;;;;;;;;;;10290829;28;20087;-65
2023/11/03 16:35:31;;;;;;;8.15;6.00;;;;;;;;;;10290284;28;20111;-66
2023/11/03 16:40:29;;;;;;;7.45;6.63;;;;;;;;;;10289508;28;20067;-66
2023/11/03 16:45:28;;;;;;;12.48;8.75;;;;;;;;;;10289475;28;20084;-66
2023/11/03 16:50:26;;;;;;;8.48;6.22;;;;;;;;;;10291838;28;20505;-66
2023/11/03 16:55:29;;;;;;;5.88;5.28;;;;;;;;;;10290017;28;20084;-65
2023/11/03 17:00:28;;;;;;;20.40;7.13;;;;;;;;;;10293208;28;20067;-65
2023/11/03 17:05:39;;;;;;;482.08;62.47;;;;;;;;;;10289261;28;20163;-65
2023/11/03 17:10:39;;;;;;;12.55;9.40;;;;;;;;;;10289578;28;20450;-66
2023/11/03 17:15:38;;;;;;;17.13;9.73;;;;;;;;;;10287713;28;20045;-65
2023/11/03 17:20:36;;;;;;;7.03;5.50;;;;;;;;;;10287790;28;20083;-65
2023/11/03 17:25:34;;;;;;;7.38;5.05;;;;;;;;;;10286254;28;20080;-65
2023/11/03 17:30:35;;;;;;;7.80;5.13;;;;;;;;;;10289837;28;20072;-65
2023/11/03 17:35:34;;;;;;;8.27;6.22;;;;;;;;;;10285137;28;20068;-64
2023/11/03 17:40:33;;;;;;;12.57;7.57;;;;;;;;;;10288861;28;20064;-65
2023/11/03 17:45:32;;;;;;;3.95;3.20;;;;;;;;;;10297885;28;20087;-66
2023/11/03 17:50:32;;;;;;;6.45;3.50;;;;;;;;;;10295975;28;20556;-65
2023/11/03 17:55:30;;;;;;;7.70;3.30;;;;;;;;;;10295162;28;20484;-65
2023/11/03 18:00:30;;;;;;;6.45;3.40;;;;;;;;;;10296400;28;20076;-65
2023/11/03 18:05:28;;;;;;;4.68;2.88;;;;;;;;;;10297442;28;20479;-65
2023/11/03 18:10:28;;;;;;;3.50;3.03;;;;;;;;;;10295168;28;20064;-65
2023/11/03 18:15:26;;;;;;;5.35;3.17;;;;;;;;;;10296119;28;20076;-65
2023/11/03 18:20:26;;;;;;;5.72;3.97;;;;;;;;;;10295307;28;20079;-65
2023/11/03 18:25:25;;;;;;;3.63;3.15;;;;;;;;;;10297327;28;20080;-65
2023/11/03 18:30:24;;;;;;;4.57;3.72;;;;;;;;;;10295229;28;20077;-66
2023/11/03 18:35:25;;;;;;;4.15;3.03;;;;;;;;;;10295283;28;20081;-66
2023/11/03 18:40:26;;;;;;;10.68;4.68;;;;;;;;;;10292896;28;20072;-65
2023/11/03 18:45:27;;;;;;;5.90;3.33;;;;;;;;;;10294045;28;20527;-65
2023/11/03 18:50:28;;;;;;;3.55;3.25;;;;;;;;;;10293964;28;20076;-67
2023/11/03 18:55:30;;;;;;;7.37;3.50;;;;;;;;;;10292745;28;20170;-65
2023/11/03 19:00:50;;;;;;;3.78;2.63;;;;;;;;;;10293452;28;20080;-66
2023/11/03 19:06:08;;;;;;;6.70;3.33;;;;;;;;;;10292772;28;20076;-66
2023/11/03 19:11:10;;;;;;;5.15;2.60;;;;;;;;;;10294736;28;20087;-65
2023/11/03 19:16:12;;;;;;;6.68;3.10;;;;;;;;;;10293668;28;20479;-66
2023/11/03 19:21:10;;;;;;;4.85;2.72;;;;;;;;;;10293014;28;20088;-66
2023/11/03 19:26:09;;;;;;;3.13;2.67;;;;;;;;;;10292466;28;20100;-66
2023/11/03 19:31:10;;;;;;;3.78;2.65;;;;;;;;;;10292969;28;20071;-66
2023/11/03 19:36:14;;;;;;;3.85;2.72;;;;;;;;;;10293797;28;20073;-65
2023/11/03 19:41:17;;;;;;;4.35;2.63;;;;;;;;;;10294625;28;20326;-65
2023/11/03 19:46:18;;;;;;;6.50;3.40;;;;;;;;;;10293046;28;20103;-67
2023/11/03 19:51:18;;;;;;;8.75;3.83;;;;;;;;;;10290965;28;20076;-66
2023/11/03 19:56:16;;;;;;;6.80;3.22;;;;;;;;;;10290824;28;20074;-66
2023/11/03 20:01:15;;;;;;;4.60;3.00;;;;;;;;;;10290528;28;20060;-66
2023/11/03 20:06:13;;;;;;;7.65;2.80;;;;;;;;;;10289014;28;20084;-65
2023/11/03 20:11:13;;;;;;;4.82;3.05;;;;;;;;;;10296478;28;20533;-66
2023/11/03 20:16:11;;;;;;;5.95;2.72;;;;;;;;;;10290010;28;20075;-65
2023/11/03 20:21:10;;;;;;;8.45;2.63;;;;;;;;;;10290785;28;20088;-65
2023/11/03 20:26:10;;;;;;;8.38;2.75;;;;;;;;;;10289046;28;20490;-66
2023/11/03 20:31:09;;;;;;;7.90;3.10;;;;;;;;;;10290432;28;20499;-66
2023/11/03 20:36:08;;;;;;;4.43;2.60;;;;;;;;;;10289178;28;20087;-66
2023/11/03 20:41:07;;;;;;;3.83;2.53;;;;;;;;;;10288925;28;20082;-65
2023/11/03 20:46:05;;;;;;;4.63;2.53;;;;;;;;;;10290601;28;20433;-65
2023/11/03 20:51:05;;;;;;;4.65;2.90;;;;;;;;;;10290500;28;20576;-65
2023/11/03 20:56:04;;;;;;;4.28;2.90;;;;;;;;;;10283511;28;20079;-67
2023/11/03 21:01:03;;;;;;;6.20;2.80;;;;;;;;;;10290611;28;20083;-66
2023/11/03 21:06:01;;;;;;;6.32;3.63;;;;;;;;;;10290084;28;20098;-65
2023/11/03 21:11:01;;;;;;;6.82;5.15;;;;;;;;;;10288799;28;20079;-65
2023/11/03 21:16:00;;;;;;;6.38;4.65;;;;;;;;;;10289892;28;20501;-65
2023/11/03 21:20:58;;;;;;;8.55;5.35;;;;;;;;;;10296598;28;20478;-65
2023/11/03 21:25:57;;;;;;;6.43;4.53;;;;;;;;;;10297130;28;20068;-65
2023/11/03 21:30:56;;;;;;;6.75;4.90;;;;;;;;;;10297591;28;20080;-65
2023/11/03 21:35:55;;;;;;;7.90;4.70;;;;;;;;;;10302615;28;20068;-65
2023/11/03 21:40:55;;;;;;;11.45;5.68;;;;;;;;;;10297174;28;20068;-65
2023/11/03 21:45:54;;;;;;;11.45;5.28;;;;;;;;;;10295111;28;20068;-65
2023/11/03 21:50:53;;;;;;;6.68;5.97;;;;;;;;;;10295904;28;20541;-66
2023/11/03 21:55:52;;;;;;;9.57;8.23;;;;;;;;;;10297479;28;20072;-66
2023/11/03 22:00:50;;;;;;;11.82;7.88;;;;;;;;;;10287467;28;20084;-65
2023/11/03 22:05:48;;;;;;;8.88;7.65;;;;;;;;;;10294025;28;20084;-66
2023/11/03 22:10:50;;;;;;;11.32;7.28;;;;;;;;;;10290874;28;20072;-66
2023/11/03 22:15:49;;;;;;;13.77;8.50;;;;;;;;;;10292025;28;20084;-64
2023/11/03 22:20:47;;;;;;;10.23;8.55;;;;;;;;;;10293370;28;20095;-65
2023/11/03 22:25:50;;;;;;;10.60;7.90;;;;;;;;;;10292089;28;20072;-65
2023/11/03 22:30:51;;;;;;;11.13;7.85;;;;;;;;;;10291337;28;20072;-64
2023/11/03 22:35:49;;;;;;;10.27;7.75;;;;;;;;;;10294592;28;20118;-64
2023/11/03 22:40:47;;;;;;;23.23;18.73;;;;;;;;;;10295293;28;20663;-65
2023/11/03 22:45:47;;;;;;;7.72;7.03;;;;;;;;;;10294473;28;20072;-65
2023/11/03 22:50:45;;;;;;;12.48;7.70;;;;;;;;;;10292693;28;20072;-65
2023/11/03 22:55:43;;;;;;;9.82;8.55;;;;;;;;;;10292404;28;20080;-64
2023/11/03 23:00:42;;;;;;;9.07;7.65;;;;;;;;;;10294843;28;20076;-65
2023/11/03 23:05:41;;;;;;;9.45;8.32;;;;;;;;;;10293189;28;20072;-65
2023/11/03 23:10:43;;;;;;;11.88;8.23;;;;;;;;;;10293791;28;20075;-65
2023/11/03 23:15:41;;;;;;;12.93;8.35;;;;;;;;;;10294067;28;20061;-64
2023/11/03 23:20:41;;;;;;;13.70;8.02;;;;;;;;;;10293176;28;20079;-65
2023/11/03 23:25:39;;;;;;;12.57;8.38;;;;;;;;;;10293198;28;20073;-65
2023/11/03 23:30:38;;;;;;;8.75;7.85;;;;;;;;;;10292388;28;20521;-64
2023/11/03 23:35:36;;;;;;;9.48;8.40;;;;;;;;;;10291616;28;20067;-64
2023/11/03 23:40:36;;;;;;;10.27;7.45;;;;;;;;;;10291850;28;20079;-64
2023/11/03 23:45:34;;;;;;;14.02;9.13;;;;;;;;;;10291322;28;20080;-65
2023/11/03 23:50:32;;;;;;;9.73;8.73;;;;;;;;;;10292574;28;20532;-64
2023/11/03 23:55:31;;;;;;;10.60;8.43;;;;;;;;;;10292029;28;20072;-65
